createdAt,value
2019-05-17T00:09:47.894Z,4.51
2019-05-17T00:14:47.453Z,6.95
2019-05-17T00:19:47.541Z,4.58
2019-05-17T00:24:36.961Z,6.27
2019-05-17T00:29:43.275Z,7.33
2019-05-17T00:34:50.697Z,5.00
2019-05-17T00:39:57.937Z,5.07
2019-05-17T00:45:18.170Z,4.58
2019-05-17T00:50:07.424Z,6.47
2019-05-17T00:55:26.930Z,6.82
2019-05-17T01:00:27.844Z,8.83
2019-05-17T01:05:27.606Z,6.99
2019-05-17T01:10:27.784Z,6.90
2019-05-17T01:15:16.722Z,7.62
2019-05-17T01:20:36.948Z,6.88
2019-05-17T01:25:24.039Z,6.80
2019-05-17T01:30:32.301Z,9.47
2019-05-17T01:35:39.581Z,8.44
2019-05-17T01:41:00.790Z,9.52
2019-05-17T01:46:01.015Z,9.36
2019-05-17T01:51:02.163Z,7.50
2019-05-17T01:55:49.612Z,11.16
2019-05-17T02:00:57.385Z,8.34
2019-05-17T02:06:07.226Z,8.85
2019-05-17T02:11:26.774Z,7.26
2019-05-17T02:16:12.835Z,7.79
2019-05-17T02:21:21.135Z,9.82
2019-05-17T02:26:41.449Z,8.97
2019-05-17T02:31:43.460Z,8.25
2019-05-17T02:36:29.051Z,8.02
2019-05-17T02:41:53.040Z,6.29
2019-05-17T02:46:53.518Z,7.47
2019-05-17T02:51:52.765Z,7.00
2019-05-17T02:56:38.414Z,5.99
2019-05-17T03:01:45.802Z,5.89
2019-05-17T03:07:06.074Z,7.26
2019-05-17T03:11:57.124Z,7.55
2019-05-17T03:17:14.547Z,8.16
2019-05-17T03:22:15.838Z,8.96
2019-05-17T03:27:03.233Z,8.01
2019-05-17T03:32:26.689Z,6.38
2019-05-17T03:37:19.741Z,6.01
2019-05-17T03:42:16.894Z,7.55
2019-05-17T03:47:26.045Z,8.71
2019-05-17T03:52:47.153Z,6.83
2019-05-17T03:57:48.351Z,5.93
2019-05-17T04:02:49.590Z,8.00
2019-05-17T04:07:49.760Z,7.02
2019-05-17T04:12:38.043Z,7.12
2019-05-17T04:17:45.367Z,6.34
2019-05-17T04:22:53.889Z,6.77
2019-05-17T04:28:15.297Z,6.47
2019-05-17T04:33:16.365Z,7.50
2019-05-17T04:38:04.874Z,12.65
2019-05-17T04:43:13.645Z,11.69
2019-05-17T04:48:33.317Z,10.83
2019-05-17T04:53:33.403Z,14.90
2019-05-17T04:58:34.713Z,12.56
2019-05-17T05:03:23.370Z,10.50
2019-05-17T05:08:43.512Z,12.73
2019-05-17T05:13:43.618Z,10.71
2019-05-17T05:18:44.884Z,9.10
2019-05-17T05:23:45.133Z,11.18
2019-05-17T05:28:32.336Z,9.31
2019-05-17T05:33:41.924Z,7.02
2019-05-17T05:38:48.128Z,12.66
2019-05-17T05:43:55.510Z,11.49
2019-05-17T05:49:15.700Z,9.52
2019-05-17T05:54:16.888Z,8.24
2019-05-17T05:59:17.311Z,10.05
2019-05-17T06:04:04.644Z,7.16
2019-05-17T06:09:12.254Z,6.42
2019-05-17T06:14:32.494Z,6.25
2019-05-17T06:19:22.242Z,8.85
2019-05-17T06:24:27.226Z,9.80
2019-05-17T06:29:48.295Z,10.12
2019-05-17T06:34:36.667Z,7.51
2019-05-17T06:39:44.072Z,7.46
2019-05-17T06:44:52.427Z,11.51
2019-05-17T06:50:14.350Z,12.95
2019-05-17T06:55:03.497Z,11.57
2019-05-17T07:00:13.970Z,9.99
2019-05-17T07:05:20.833Z,10.83
2019-05-17T07:10:10.955Z,8.66
2019-05-17T07:15:43.312Z,9.38
2019-05-17T07:20:29.895Z,7.48
2019-05-17T07:30:19.866Z,8.04
2019-05-17T07:35:30.041Z,9.34
2019-05-17T07:40:35.782Z,7.86
2019-05-17T07:50:50.210Z,6.27
2019-05-17T07:56:10.280Z,6.00
2019-05-17T08:00:55.587Z,6.47
2019-05-17T08:06:16.838Z,8.04
2019-05-17T08:16:10.125Z,6.04
2019-05-17T08:21:15.637Z,7.09
2019-05-17T08:26:35.931Z,7.74
2019-05-17T08:31:23.376Z,7.18
2019-05-17T08:36:44.489Z,6.39
2019-05-17T08:41:45.838Z,5.44
2019-05-17T08:51:50.820Z,6.72
2019-05-17T09:01:43.526Z,6.94
2019-05-17T09:06:50.900Z,6.46
2019-05-17T09:17:15.802Z,6.93
2019-05-17T09:22:17.042Z,10.47
2019-05-17T09:27:19.758Z,7.70
2019-05-17T09:37:22.613Z,7.93
2019-05-17T09:42:21.960Z,6.62
2019-05-17T09:47:22.110Z,5.69
2019-05-17T09:52:10.557Z,9.78
2019-05-17T09:57:30.604Z,5.68
2019-05-17T10:02:20.311Z,5.78
2019-05-17T10:07:26.609Z,7.56
2019-05-17T10:12:46.680Z,5.02
2019-05-17T10:17:47.902Z,5.41
2019-05-17T10:22:35.260Z,5.92
2019-05-17T10:27:55.276Z,4.25
2019-05-17T10:32:56.525Z,5.69
2019-05-17T10:37:44.820Z,5.41
2019-05-17T10:43:06.075Z,4.44
2019-05-17T10:58:13.994Z,6.18
2019-05-17T11:03:15.285Z,5.31
2019-05-17T11:08:16.672Z,5.38
2019-05-17T11:13:16.987Z,4.26
2019-05-17T11:18:17.343Z,3.97
2019-05-17T11:23:17.676Z,2.94
2019-05-17T11:28:17.848Z,3.53
2019-05-17T11:38:20.356Z,4.25
2019-05-17T11:43:20.510Z,2.85
2019-05-17T11:48:08.865Z,4.06
2019-05-17T11:53:29.182Z,4.37
2019-05-17T11:58:30.340Z,5.06
2019-05-17T12:03:30.622Z,5.60
2019-05-17T12:13:31.795Z,7.79
2019-05-17T12:23:24.151Z,4.38
2019-05-17T12:28:31.442Z,4.33
2019-05-17T12:38:55.768Z,4.47
2019-05-17T12:43:43.278Z,4.80
2019-05-17T12:49:03.475Z,5.13
2019-05-17T12:54:03.631Z,4.36
2019-05-17T12:58:51.832Z,3.59
2019-05-17T13:03:59.199Z,3.39
2019-05-17T13:14:21.346Z,5.46
2019-05-17T13:19:25.229Z,4.09
2019-05-17T13:24:10.116Z,3.27
2019-05-17T13:29:17.551Z,4.29
2019-05-17T13:39:39.219Z,2.86
2019-05-17T13:44:42.551Z,4.95
2019-05-17T13:49:42.787Z,3.56
2019-05-17T13:54:32.207Z,5.04
2019-05-17T14:04:31.491Z,3.36
2019-05-17T14:09:51.788Z,2.97
2019-05-17T14:14:52.081Z,4.25
2019-05-17T14:19:40.273Z,3.46
2019-05-17T14:24:47.785Z,4.12
2019-05-17T14:29:55.120Z,3.96
2019-05-17T14:35:03.868Z,3.98
2019-05-17T14:40:11.071Z,3.53
2019-05-17T14:45:19.662Z,3.80
2019-05-17T14:50:27.131Z,6.15
2019-05-17T14:55:34.608Z,4.09
2019-05-17T15:00:54.684Z,3.87
2019-05-17T15:05:55.922Z,3.34
2019-05-17T15:16:00.262Z,3.88
2019-05-17T15:21:00.394Z,3.94
2019-05-17T15:25:48.959Z,4.11
2019-05-17T15:31:00.483Z,6.65
2019-05-17T15:35:57.882Z,4.15
2019-05-17T15:46:09.101Z,6.93
2019-05-17T15:51:18.035Z,5.43
2019-05-17T16:01:29.413Z,5.02
2019-05-17T16:06:49.757Z,2.35
2019-05-17T16:11:50.216Z,3.39
2019-05-17T16:26:56.608Z,12.69
2019-05-17T16:31:44.921Z,4.71
2019-05-17T16:37:06.256Z,7.39
2019-05-17T16:42:08.644Z,6.36
2019-05-17T16:46:56.157Z,3.35
2019-05-17T17:12:31.068Z,3.79
2019-05-17T17:22:32.607Z,3.07
2019-05-17T17:32:24.914Z,4.74
2019-05-17T17:42:37.386Z,2.37
2019-05-17T17:47:58.828Z,2.31
2019-05-17T17:52:46.394Z,2.28
2019-05-17T17:58:06.463Z,1.81
2019-05-17T18:03:07.674Z,1.99
2019-05-17T18:08:08.827Z,4.07
2019-05-17T18:13:10.225Z,2.76
2019-05-17T18:18:10.363Z,3.81
2019-05-17T18:22:58.711Z,3.89
2019-05-17T18:28:07.021Z,4.44
2019-05-17T18:33:28.323Z,4.29
2019-05-17T18:38:29.739Z,6.30
2019-05-17T18:43:17.037Z,3.03
2019-05-17T18:48:37.225Z,4.74
2019-05-17T18:53:37.412Z,4.08
2019-05-17T18:58:39.421Z,5.11
2019-05-17T19:03:38.158Z,6.44
2019-05-17T19:08:26.561Z,7.22
2019-05-17T19:18:37.772Z,7.60
2019-05-17T19:23:58.941Z,8.60
2019-05-17T19:28:46.377Z,7.04
2019-05-17T19:34:06.457Z,10.90
2019-05-17T19:39:07.746Z,12.47
2019-05-17T19:43:55.186Z,10.08
2019-05-17T19:49:15.432Z,6.84
2019-05-17T19:54:03.677Z,9.20
2019-05-17T19:59:12.666Z,7.95
2019-05-17T20:04:19.983Z,8.61
2019-05-17T20:09:27.580Z,8.86
2019-05-17T20:14:35.173Z,10.20
2019-05-17T20:19:55.437Z,8.67
2019-05-17T20:24:56.479Z,9.84
2019-05-17T20:29:56.748Z,13.15
2019-05-17T20:34:44.076Z,9.66
2019-05-17T20:40:04.360Z,11.82
2019-05-17T20:44:52.691Z,13.15
2019-05-17T20:49:59.934Z,11.73
2019-05-17T20:55:08.258Z,11.23
2019-05-17T21:00:15.671Z,10.29
2019-05-17T21:05:36.177Z,13.16
2019-05-17T21:10:36.274Z,11.70
2019-05-17T21:15:24.477Z,12.51
2019-05-17T21:20:45.701Z,9.89
2019-05-17T21:25:33.077Z,12.39
2019-05-17T21:30:54.118Z,10.92
2019-05-17T21:35:42.300Z,8.38
2019-05-17T21:40:50.574Z,4.89
2019-05-17T21:46:11.934Z,7.63
2019-05-17T21:50:59.334Z,8.24
2019-05-17T21:56:19.652Z,10.05
2019-05-17T22:01:19.827Z,9.95
2019-05-17T22:06:07.979Z,8.57
2019-05-17T22:11:16.237Z,8.38
2019-05-17T22:16:24.380Z,9.52
2019-05-17T22:21:32.810Z,9.26
2019-05-17T22:26:52.903Z,6.96
2019-05-17T22:31:41.378Z,7.10
2019-05-17T22:37:02.595Z,9.48
2019-05-17T22:41:50.958Z,8.45
2019-05-17T22:46:58.446Z,7.50
2019-05-17T22:52:19.547Z,9.17
2019-05-17T22:57:06.706Z,6.62
2019-05-17T23:07:31.910Z,6.34
2019-05-17T23:12:32.470Z,6.38
2019-05-17T23:17:32.435Z,9.11
2019-05-17T23:22:33.738Z,7.03
2019-05-17T23:27:34.909Z,6.55
2019-05-17T23:32:35.096Z,6.63
2019-05-17T23:37:36.344Z,9.08
2019-05-17T23:42:23.723Z,7.26
2019-05-17T23:47:34.093Z,4.91
2019-05-17T23:52:54.523Z,6.97
2019-05-17T23:57:54.785Z,6.59
